createdAt,value
2023-01-08T00:00:47.225Z,78.79
2023-01-08T00:02:49.804Z,79.08
2023-01-08T00:04:51.264Z,79.32
2023-01-08T00:06:52.970Z,78.94
2023-01-08T00:08:54.507Z,79.20
2023-01-08T00:10:56.649Z,79.63
2023-01-08T00:12:58.071Z,80.46
2023-01-08T00:14:59.541Z,81.25
2023-01-08T00:17:04.403Z,81.87
2023-01-08T00:19:05.829Z,81.78
2023-01-08T00:21:07.773Z,81.13
2023-01-08T00:23:13.435Z,81.75
2023-01-08T00:25:15.173Z,82.34
2023-01-08T00:27:16.592Z,82.20
2023-01-08T00:29:17.946Z,82.27
2023-01-08T00:31:19.378Z,81.57
2023-01-08T00:33:20.832Z,82.22
2023-01-08T00:35:22.234Z,82.10
2023-01-08T00:37:23.857Z,82.39
2023-01-08T00:39:25.313Z,82.14
2023-01-08T00:41:26.734Z,81.71
2023-01-08T00:43:28.115Z,81.98
2023-01-08T00:45:29.610Z,81.94
2023-01-08T00:47:31.257Z,81.12
2023-01-08T00:49:32.618Z,81.84
2023-01-08T00:51:33.993Z,81.67
2023-01-08T00:53:35.759Z,82.25
2023-01-08T00:55:37.182Z,82.30
2023-01-08T00:57:39.409Z,81.99
2023-01-08T00:59:40.824Z,81.88
2023-01-08T01:01:42.375Z,82.24
2023-01-08T01:03:43.903Z,82.11
2023-01-08T01:05:45.292Z,82.28
2023-01-08T01:07:46.953Z,82.33
2023-01-08T01:09:48.435Z,82.49
2023-01-08T01:11:49.836Z,82.35
2023-01-08T01:13:52.135Z,82.92
2023-01-08T01:15:58.167Z,82.13
2023-01-08T01:17:59.531Z,82.81
2023-01-08T01:20:01.017Z,82.42
2023-01-08T01:22:02.429Z,82.15
2023-01-08T01:24:06.146Z,82.52
2023-01-08T01:26:17.655Z,82.26
2023-01-08T01:28:19.069Z,82.52
2023-01-08T01:30:20.573Z,82.52
2023-01-08T01:32:21.988Z,82.37
2023-01-08T01:34:23.381Z,82.11
2023-01-08T01:36:26.166Z,82.31
2023-01-08T01:38:27.779Z,81.89
2023-01-08T01:40:29.204Z,81.83
2023-01-08T01:42:39.729Z,82.15
2023-01-08T01:44:44.547Z,81.96
2023-01-08T01:46:47.516Z,82.15
2023-01-08T01:48:53.224Z,81.88
2023-01-08T01:50:54.662Z,82.16
2023-01-08T01:52:59.409Z,82.34
2023-01-08T01:55:03.362Z,82.30
2023-01-08T01:57:06.810Z,81.81
2023-01-08T01:59:08.469Z,82.55
2023-01-08T02:03:38.471Z,82.27
2023-01-08T02:05:55.529Z,82.61
2023-01-08T02:08:06.626Z,82.35
2023-01-08T02:10:20.432Z,82.12
2023-01-08T02:12:41.714Z,82.07
2023-01-08T02:15:15.117Z,82.01
2023-01-08T02:17:26.098Z,82.32
2023-01-08T02:19:42.602Z,81.89
2023-01-08T02:22:05.353Z,82.32
2023-01-08T02:24:20.499Z,82.16
2023-01-08T02:26:30.890Z,82.32
2023-01-08T02:28:48.298Z,82.44
2023-01-08T02:30:50.039Z,82.50
2023-01-08T02:32:51.476Z,83.32
2023-01-08T02:34:53.674Z,83.05
2023-01-08T02:36:56.842Z,83.33
2023-01-08T02:39:13.804Z,83.41
2023-01-08T02:41:17.198Z,83.40
2023-01-08T02:43:45.132Z,83.58
2023-01-08T02:45:50.401Z,83.72
2023-01-08T02:48:00.092Z,83.59
2023-01-08T02:50:14.333Z,84.72
2023-01-08T02:52:17.376Z,85.00
2023-01-08T02:54:26.157Z,84.72
2023-01-08T02:56:33.541Z,85.27
2023-01-08T02:58:37.154Z,85.22
2023-01-08T03:00:41.156Z,85.22
2023-01-08T03:02:43.445Z,85.70
2023-01-08T03:04:52.887Z,85.58
2023-01-08T03:06:54.500Z,85.52
2023-01-08T03:08:56.296Z,85.47
2023-01-08T03:11:09.962Z,86.02
2023-01-08T03:13:17.394Z,85.69
2023-01-08T03:15:25.690Z,85.88
2023-01-08T03:17:32.420Z,85.80
2023-01-08T03:19:42.731Z,84.87
2023-01-08T03:22:11.395Z,85.64
2023-01-08T03:24:16.974Z,85.40
2023-01-08T03:28:53.122Z,85.55
2023-01-08T03:30:54.659Z,85.86
2023-01-08T03:33:00.353Z,85.97
2023-01-08T03:35:05.484Z,86.44
2023-01-08T03:37:09.434Z,86.00
2023-01-08T03:39:16.975Z,85.59
2023-01-08T03:41:22.691Z,85.63
2023-01-08T03:43:24.569Z,86.17
2023-01-08T03:45:30.308Z,85.85
2023-01-08T03:47:33.898Z,85.98
2023-01-08T03:49:36.315Z,85.68
2023-01-08T03:51:45.933Z,86.71
2023-01-08T03:53:49.380Z,86.24
2023-01-08T03:55:50.843Z,86.22
2023-01-08T03:57:52.264Z,85.65
2023-01-08T03:59:53.655Z,85.79
2023-01-08T04:01:55.147Z,85.57
2023-01-08T04:03:56.607Z,85.88
2023-01-08T04:06:01.199Z,85.80
2023-01-08T04:08:02.631Z,86.00
2023-01-08T04:10:04.432Z,86.20
2023-01-08T04:12:06.465Z,85.43
2023-01-08T04:14:07.966Z,85.22
2023-01-08T04:16:09.349Z,86.11
2023-01-08T04:18:10.740Z,85.97
2023-01-08T04:20:12.176Z,85.61
2023-01-08T04:22:13.574Z,85.62
2023-01-08T04:24:15.114Z,86.05
2023-01-08T04:26:16.491Z,85.78
2023-01-08T04:28:18.028Z,85.70
2023-01-08T04:30:19.395Z,86.43
2023-01-08T04:32:21.090Z,86.10
2023-01-08T04:34:22.760Z,85.93
2023-01-08T04:36:24.158Z,86.45
2023-01-08T04:38:25.536Z,86.37
2023-01-08T04:40:27.074Z,85.88
2023-01-08T04:42:28.465Z,86.37
2023-01-08T04:44:29.864Z,86.38
2023-01-08T04:46:31.313Z,86.23
2023-01-08T04:48:33.124Z,86.48
2023-01-08T04:50:34.522Z,86.53
2023-01-08T04:52:36.203Z,86.15
2023-01-08T04:54:37.624Z,86.54
2023-01-08T04:56:39.034Z,86.88
2023-01-08T04:58:40.653Z,86.84
2023-01-08T05:00:42.095Z,86.88
2023-01-08T05:02:43.848Z,86.99
2023-01-08T05:04:45.405Z,86.90
2023-01-08T05:06:46.793Z,86.40
2023-01-08T05:08:48.465Z,87.07
2023-01-08T05:10:49.863Z,87.33
2023-01-08T05:12:51.330Z,86.41
2023-01-08T05:14:52.675Z,86.54
2023-01-08T05:16:54.053Z,86.85
2023-01-08T05:18:55.452Z,86.64
2023-01-08T05:21:04.854Z,86.55
2023-01-08T05:23:06.244Z,86.51
2023-01-08T05:25:08.162Z,86.40
2023-01-08T05:27:09.533Z,86.71
2023-01-08T05:29:11.041Z,86.78
2023-01-08T05:31:12.688Z,86.86
2023-01-08T05:33:14.211Z,86.73
2023-01-08T05:35:15.674Z,86.91
2023-01-08T05:37:17.044Z,86.33
2023-01-08T05:39:18.425Z,85.97
2023-01-08T05:41:19.802Z,85.78
2023-01-08T05:43:21.207Z,86.24
2023-01-08T05:45:22.607Z,86.00
2023-01-08T05:47:24.110Z,85.59
2023-01-08T05:49:25.653Z,86.28
2023-01-08T05:51:27.153Z,85.85
2023-01-08T05:53:28.630Z,85.10
2023-01-08T05:55:30.038Z,85.33
2023-01-08T05:57:31.437Z,85.38
2023-01-08T05:59:32.808Z,85.05
2023-01-08T06:01:34.257Z,84.92
2023-01-08T06:03:36.046Z,84.60
2023-01-08T06:05:37.399Z,84.73
2023-01-08T06:07:38.804Z,84.29
2023-01-08T06:09:40.242Z,84.46
2023-01-08T06:11:41.631Z,84.97
2023-01-08T06:13:44.041Z,84.69
2023-01-08T06:15:45.440Z,84.72
2023-01-08T06:17:46.863Z,84.96
2023-01-08T06:19:48.313Z,85.38
2023-01-08T06:21:49.852Z,85.26
2023-01-08T06:23:51.177Z,85.33
2023-01-08T06:25:57.089Z,85.27
2023-01-08T06:27:58.474Z,85.23
2023-01-08T06:29:59.932Z,85.20
2023-01-08T06:32:01.316Z,85.39
2023-01-08T06:34:02.901Z,85.40
2023-01-08T06:36:05.227Z,85.86
2023-01-08T06:38:06.812Z,86.05
2023-01-08T06:40:08.748Z,86.20
2023-01-08T06:42:10.226Z,86.18
2023-01-08T06:44:11.843Z,86.07
2023-01-08T06:46:13.696Z,86.13
2023-01-08T06:48:15.109Z,86.48
2023-01-08T06:50:16.465Z,86.32
2023-01-08T06:52:17.830Z,86.32
2023-01-08T06:54:19.394Z,86.33
2023-01-08T06:56:20.816Z,86.26
2023-01-08T06:58:23.136Z,86.30
2023-01-08T07:00:27.167Z,86.27
2023-01-08T07:02:28.830Z,86.21
2023-01-08T07:04:30.288Z,86.16
2023-01-08T07:06:31.649Z,86.27
2023-01-08T07:08:33.140Z,86.39
2023-01-08T07:10:38.403Z,86.18
2023-01-08T07:12:39.835Z,86.16
2023-01-08T07:14:41.685Z,86.20
2023-01-08T07:16:43.040Z,85.87
2023-01-08T07:18:44.815Z,86.33
2023-01-08T07:20:48.630Z,85.78
2023-01-08T07:22:49.970Z,85.63
2023-01-08T07:24:52.273Z,85.68
2023-01-08T07:26:53.689Z,85.84
2023-01-08T07:28:55.057Z,86.32
2023-01-08T07:30:57.068Z,85.61
2023-01-08T07:33:01.835Z,85.31
2023-01-08T07:35:03.669Z,85.32
2023-01-08T07:37:05.100Z,85.50
2023-01-08T07:39:06.537Z,85.85
2023-01-08T07:41:08.041Z,85.63
2023-01-08T07:43:12.273Z,85.33
2023-01-08T07:45:13.653Z,85.83
2023-01-08T07:47:15.028Z,85.40
2023-01-08T07:49:16.450Z,85.41
2023-01-08T07:51:17.966Z,87.13
2023-01-08T07:53:19.537Z,86.47
2023-01-08T07:55:20.974Z,85.84
2023-01-08T07:57:22.346Z,85.87
2023-01-08T07:59:23.728Z,85.80
2023-01-08T08:01:26.238Z,85.98
2023-01-08T08:03:27.941Z,86.91
2023-01-08T08:05:29.325Z,87.42
2023-01-08T08:07:31.640Z,87.26
2023-01-08T08:09:33.164Z,84.87
2023-01-08T08:11:34.538Z,85.21
2023-01-08T08:13:36.811Z,84.93
2023-01-08T08:15:39.067Z,85.67
2023-01-08T08:17:43.862Z,85.90
2023-01-08T08:19:45.613Z,85.77
2023-01-08T08:21:47.007Z,86.32
2023-01-08T08:23:48.391Z,86.22
2023-01-08T08:25:51.743Z,86.15
2023-01-08T08:27:56.769Z,85.10
2023-01-08T08:29:58.162Z,85.23
2023-01-08T08:31:59.513Z,85.01
2023-01-08T08:34:00.974Z,85.17
2023-01-08T08:36:02.361Z,84.33
2023-01-08T08:38:04.585Z,84.70
2023-01-08T08:40:06.591Z,84.74
2023-01-08T08:42:07.965Z,85.01
2023-01-08T08:44:09.469Z,84.33
2023-01-08T08:46:10.998Z,83.26
2023-01-08T08:48:12.510Z,82.81
2023-01-08T08:50:13.906Z,83.49
2023-01-08T08:52:15.283Z,83.06
2023-01-08T08:54:16.658Z,82.70
2023-01-08T08:56:18.237Z,82.74
2023-01-08T08:58:19.639Z,83.19
2023-01-08T09:00:27.638Z,83.18
2023-01-08T09:02:29.255Z,83.34
2023-01-08T09:04:34.283Z,82.43
2023-01-08T09:06:35.743Z,82.53
2023-01-08T09:08:37.098Z,82.84
2023-01-08T09:10:41.462Z,83.31
2023-01-08T09:12:42.816Z,83.27
2023-01-08T09:14:44.746Z,83.86
2023-01-08T09:16:46.184Z,83.05
2023-01-08T09:18:49.006Z,82.63
2023-01-08T09:20:50.433Z,82.27
2023-01-08T09:22:52.047Z,82.50
2023-01-08T09:24:55.065Z,83.02
2023-01-08T09:26:56.450Z,82.25
2023-01-08T09:28:58.659Z,81.96
2023-01-08T09:31:04.048Z,81.56
2023-01-08T09:33:05.836Z,81.71
2023-01-08T09:35:07.632Z,82.60
2023-01-08T09:37:08.991Z,81.92
2023-01-08T09:39:10.589Z,81.67
2023-01-08T09:41:15.970Z,82.05
2023-01-08T09:43:21.099Z,81.98
2023-01-08T09:45:31.759Z,82.03
2023-01-08T09:47:39.101Z,81.46
2023-01-08T09:49:44.060Z,81.83
2023-01-08T09:51:45.559Z,81.84
2023-01-08T09:53:53.822Z,81.64
2023-01-08T09:56:10.056Z,80.56
2023-01-08T09:58:34.587Z,81.24
2023-01-08T10:00:36.001Z,80.55
2023-01-08T10:02:39.492Z,80.85
2023-01-08T10:04:42.354Z,81.12
2023-01-08T10:06:53.161Z,80.70
2023-01-08T10:08:54.577Z,81.20
2023-01-08T10:10:55.969Z,81.29
2023-01-08T10:12:58.376Z,81.65
2023-01-08T10:15:07.120Z,80.31
2023-01-08T10:17:18.719Z,80.89
2023-01-08T10:19:20.100Z,80.78
2023-01-08T10:21:29.269Z,80.36
2023-01-08T10:23:30.659Z,80.60
2023-01-08T10:25:32.031Z,80.19
2023-01-08T10:27:57.787Z,80.57
2023-01-08T10:30:06.786Z,80.58
2023-01-08T10:32:14.415Z,79.92
2023-01-08T10:34:33.124Z,80.66
2023-01-08T10:36:40.450Z,80.18
2023-01-08T10:38:50.079Z,79.92
2023-01-08T10:40:51.943Z,80.47
2023-01-08T10:42:56.077Z,81.05
2023-01-08T10:45:07.573Z,80.58
2023-01-08T10:47:17.448Z,80.68
2023-01-08T10:49:33.061Z,80.91
2023-01-08T10:51:34.487Z,80.93
2023-01-08T10:53:35.941Z,81.00
2023-01-08T10:55:38.995Z,81.45
2023-01-08T10:57:42.506Z,80.58
2023-01-08T10:59:43.873Z,80.68
2023-01-08T11:01:49.973Z,81.01
2023-01-08T11:04:03.345Z,81.09
2023-01-08T11:06:20.637Z,81.15
2023-01-08T11:08:23.349Z,81.28
2023-01-08T11:10:26.908Z,81.42
2023-01-08T11:12:36.291Z,82.10
2023-01-08T11:14:39.810Z,81.49
2023-01-08T11:16:42.227Z,81.25
2023-01-08T11:18:50.272Z,80.93
2023-01-08T11:20:53.299Z,80.87
2023-01-08T11:23:16.066Z,79.93
2023-01-08T11:25:29.303Z,79.60
2023-01-08T11:27:31.957Z,79.98
2023-01-08T11:29:51.535Z,79.92
2023-01-08T11:32:04.802Z,79.33
2023-01-08T11:34:11.917Z,79.59
2023-01-08T11:36:27.922Z,78.98
2023-01-08T11:38:29.376Z,78.97
2023-01-08T11:40:48.706Z,78.06
2023-01-08T11:43:21.093Z,77.96
2023-01-08T11:45:45.212Z,77.59
2023-01-08T11:48:08.340Z,77.33
2023-01-08T11:50:19.052Z,77.02
2023-01-08T11:52:26.202Z,77.43
2023-01-08T11:55:05.957Z,76.16
2023-01-08T11:57:25.794Z,76.30
2023-01-08T11:59:56.063Z,76.42
2023-01-08T12:02:38.650Z,76.65
2023-01-08T12:05:26.535Z,76.07
2023-01-08T12:07:50.178Z,76.17
2023-01-08T12:09:57.415Z,77.34
2023-01-08T12:12:15.160Z,75.54
2023-01-08T12:14:40.500Z,77.05
2023-01-08T12:17:13.103Z,76.30
2023-01-08T12:19:23.593Z,75.25
2023-01-08T12:21:33.394Z,75.01
2023-01-08T12:23:52.727Z,75.53
2023-01-08T12:25:59.746Z,76.48
2023-01-08T12:28:16.264Z,76.43
2023-01-08T12:30:45.860Z,75.86
2023-01-08T12:32:56.914Z,75.45
2023-01-08T12:35:08.334Z,75.88
2023-01-08T12:37:25.836Z,74.98
2023-01-08T12:39:33.796Z,75.02
2023-01-08T12:41:36.239Z,74.26
2023-01-08T12:43:59.146Z,74.57
2023-01-08T12:46:03.284Z,74.72
2023-01-08T12:48:15.755Z,74.14
2023-01-08T12:50:22.797Z,75.13
2023-01-08T12:52:40.139Z,75.43
2023-01-08T12:54:50.465Z,73.30
2023-01-08T12:57:21.515Z,73.81
2023-01-08T12:59:22.858Z,75.21
2023-01-08T13:01:42.944Z,75.15
2023-01-08T13:03:45.317Z,75.72
2023-01-08T13:05:46.796Z,75.84
2023-01-08T13:07:52.557Z,76.33
2023-01-08T13:10:08.091Z,75.85
2023-01-08T13:12:14.600Z,75.09
2023-01-08T13:14:17.948Z,74.49
2023-01-08T13:16:22.064Z,74.67
2023-01-08T13:18:23.517Z,75.87
2023-01-08T13:20:31.566Z,76.02
2023-01-08T13:22:37.349Z,75.66
2023-01-08T13:24:41.076Z,75.81
2023-01-08T13:26:42.470Z,75.45
2023-01-08T13:28:45.401Z,77.10
2023-01-08T13:30:49.080Z,76.17
2023-01-08T13:32:50.530Z,75.38
2023-01-08T13:35:16.643Z,76.73
2023-01-08T13:37:27.778Z,76.06
2023-01-08T13:39:37.830Z,76.29
2023-01-08T13:42:13.583Z,75.55
2023-01-08T13:44:27.071Z,76.13
2023-01-08T13:46:29.139Z,75.82
2023-01-08T13:48:47.679Z,75.38
2023-01-08T13:50:49.429Z,75.14
2023-01-08T13:53:02.178Z,76.08
2023-01-08T13:55:12.063Z,75.87
2023-01-08T13:57:16.471Z,75.19
2023-01-08T13:59:39.696Z,75.72
2023-01-08T14:01:52.397Z,77.36
2023-01-08T14:03:53.863Z,75.28
2023-01-08T14:06:13.329Z,75.29
2023-01-08T14:08:24.612Z,75.46
2023-01-08T14:10:28.115Z,74.36
2023-01-08T14:12:29.571Z,74.67
2023-01-08T14:14:30.967Z,74.77
2023-01-08T14:16:33.346Z,74.11
2023-01-08T14:18:34.840Z,73.93
2023-01-08T14:20:42.914Z,75.22
2023-01-08T14:22:44.395Z,75.00
2023-01-08T14:24:52.627Z,76.19
2023-01-08T14:26:56.670Z,74.92
2023-01-08T14:28:58.615Z,75.37
2023-01-08T14:31:00.337Z,75.94
2023-01-08T14:33:02.248Z,75.39
2023-01-08T14:35:05.043Z,74.74
2023-01-08T14:37:10.210Z,75.22
2023-01-08T14:39:12.681Z,75.59
2023-01-08T14:41:14.768Z,75.32
2023-01-08T14:43:19.654Z,75.49
2023-01-08T14:45:26.607Z,75.83
2023-01-08T14:47:42.741Z,76.14
2023-01-08T14:49:52.966Z,75.66
2023-01-08T14:51:57.785Z,76.33
2023-01-08T14:54:04.344Z,75.41
2023-01-08T14:56:07.063Z,75.34
2023-01-08T14:58:18.527Z,75.91
2023-01-08T15:00:27.050Z,76.58
2023-01-08T15:02:36.859Z,76.59
2023-01-08T15:04:38.346Z,76.83
2023-01-08T15:06:40.043Z,76.71
2023-01-08T15:08:43.253Z,76.83
2023-01-08T15:10:44.632Z,76.89
2023-01-08T15:12:56.863Z,76.54
2023-01-08T15:15:22.981Z,76.14
2023-01-08T15:17:27.571Z,76.34
2023-01-08T15:19:35.403Z,76.81
2023-01-08T15:21:37.264Z,76.06
2023-01-08T15:23:42.053Z,76.83
2023-01-08T15:25:44.595Z,76.94
2023-01-08T15:27:59.969Z,77.32
2023-01-08T15:30:03.541Z,76.42
2023-01-08T15:32:34.549Z,76.83
2023-01-08T15:34:35.926Z,76.40
2023-01-08T15:36:37.306Z,76.89
2023-01-08T15:38:38.730Z,76.68
2023-01-08T15:40:40.223Z,76.71
2023-01-08T15:43:02.489Z,77.46
2023-01-08T15:45:06.206Z,76.96
2023-01-08T15:47:08.077Z,76.22
2023-01-08T15:49:10.690Z,76.63
2023-01-08T15:51:12.132Z,77.43
2023-01-08T15:53:18.363Z,77.61
2023-01-08T15:55:22.142Z,77.00
2023-01-08T15:57:23.611Z,77.44
2023-01-08T15:59:24.987Z,77.31
2023-01-08T16:01:28.235Z,77.47
2023-01-08T16:03:33.530Z,78.31
2023-01-08T16:05:36.457Z,77.96
2023-01-08T16:07:38.360Z,78.40
2023-01-08T16:09:39.715Z,78.28
2023-01-08T16:11:41.081Z,78.84
2023-01-08T16:13:42.449Z,78.56
2023-01-08T16:15:43.832Z,79.84
2023-01-08T16:17:45.311Z,79.52
2023-01-08T16:19:46.711Z,79.01
2023-01-08T16:21:50.078Z,79.21
2023-01-08T16:23:51.451Z,78.90
2023-01-08T16:25:54.270Z,79.38
2023-01-08T16:27:55.725Z,79.89
2023-01-08T16:29:57.111Z,80.29
2023-01-08T16:31:58.587Z,80.25
2023-01-08T16:34:04.186Z,80.87
2023-01-08T16:36:07.861Z,81.20
2023-01-08T16:38:12.995Z,81.53
2023-01-08T16:40:15.467Z,81.51
2023-01-08T16:42:16.875Z,81.81
2023-01-08T16:44:20.671Z,82.19
2023-01-08T16:46:22.287Z,82.36
2023-01-08T16:48:23.836Z,81.85
2023-01-08T16:50:25.189Z,81.82
2023-01-08T16:52:26.614Z,82.38
2023-01-08T16:54:28.088Z,82.12
2023-01-08T16:56:29.495Z,81.92
2023-01-08T16:58:31.715Z,82.18
2023-01-08T17:00:37.547Z,81.58
2023-01-08T17:02:38.973Z,82.14
2023-01-08T17:04:40.586Z,82.57
2023-01-08T17:06:41.954Z,81.79
2023-01-08T17:08:43.471Z,82.03
2023-01-08T17:10:44.884Z,82.37
2023-01-08T17:12:46.281Z,82.26
2023-01-08T17:14:49.746Z,81.80
2023-01-08T17:16:51.126Z,82.13
2023-01-08T17:18:52.493Z,82.25
2023-01-08T17:20:54.200Z,81.09
2023-01-08T17:22:57.939Z,81.33
2023-01-08T17:24:59.396Z,81.58
2023-01-08T17:27:00.758Z,81.63
2023-01-08T17:29:02.267Z,81.96
2023-01-08T17:31:09.400Z,80.88
2023-01-08T17:33:13.971Z,81.89
2023-01-08T17:35:16.184Z,81.28
2023-01-08T17:37:17.560Z,81.11
2023-01-08T17:39:18.923Z,82.01
2023-01-08T17:41:40.677Z,81.41
2023-01-08T17:43:42.027Z,82.00
2023-01-08T17:45:43.445Z,81.81
2023-01-08T17:47:44.860Z,81.21
2023-01-08T17:49:53.448Z,82.29
2023-01-08T17:51:56.911Z,81.48
2023-01-08T17:53:58.353Z,82.30
2023-01-08T17:56:01.896Z,81.50
2023-01-08T17:58:03.389Z,82.31
2023-01-08T18:00:05.422Z,82.57
2023-01-08T18:02:15.690Z,82.68
2023-01-08T18:04:17.605Z,82.27
2023-01-08T18:06:19.749Z,83.05
2023-01-08T18:08:21.116Z,82.38
2023-01-08T18:10:22.543Z,82.56
2023-01-08T18:12:24.007Z,83.22
2023-01-08T18:14:25.690Z,82.86
2023-01-08T18:16:29.451Z,82.73
2023-01-08T18:18:30.953Z,83.10
2023-01-08T18:20:32.423Z,82.81
2023-01-08T18:22:33.827Z,83.13
2023-01-08T18:24:35.467Z,83.73
2023-01-08T18:26:37.405Z,83.57
2023-01-08T18:28:38.868Z,84.39
2023-01-08T18:30:42.906Z,83.72
2023-01-08T18:32:44.329Z,84.23
2023-01-08T18:34:45.687Z,84.49
2023-01-08T18:36:47.105Z,83.38
2023-01-08T18:38:49.084Z,84.58
2023-01-08T18:40:53.097Z,83.94
2023-01-08T18:42:54.595Z,83.88
2023-01-08T18:44:57.557Z,83.91
2023-01-08T18:46:58.932Z,84.28
2023-01-08T18:49:00.403Z,83.85
2023-01-08T18:51:05.678Z,83.40
2023-01-08T18:53:08.685Z,83.58
2023-01-08T18:55:10.217Z,83.94
2023-01-08T18:57:11.677Z,84.02
2023-01-08T18:59:13.180Z,83.33
2023-01-08T19:01:14.845Z,82.75
2023-01-08T19:03:16.288Z,84.01
2023-01-08T19:05:17.803Z,83.41
2023-01-08T19:07:20.150Z,84.10
2023-01-08T19:09:21.534Z,83.22
2023-01-08T19:11:22.939Z,84.19
2023-01-08T19:13:24.351Z,84.16
2023-01-08T19:15:25.846Z,84.32
2023-01-08T19:17:30.818Z,83.85
2023-01-08T19:19:32.205Z,83.52
2023-01-08T19:21:33.580Z,83.75
2023-01-08T19:23:35.553Z,82.88
2023-01-08T19:25:39.834Z,83.54
2023-01-08T19:27:41.259Z,83.27
2023-01-08T19:29:42.886Z,83.55
2023-01-08T19:31:44.859Z,83.58
2023-01-08T19:33:46.659Z,83.79
2023-01-08T19:35:48.004Z,82.96
2023-01-08T19:37:49.481Z,83.93
2023-01-08T19:39:50.944Z,83.31
2023-01-08T19:42:12.389Z,83.34
2023-01-08T19:44:13.869Z,82.97
2023-01-08T19:46:17.966Z,82.78
2023-01-08T19:48:19.439Z,83.46
2023-01-08T19:50:20.859Z,83.12
2023-01-08T19:52:22.676Z,83.70
2023-01-08T19:54:25.808Z,83.97
2023-01-08T19:56:27.489Z,83.65
2023-01-08T19:58:29.459Z,83.18
2023-01-08T20:00:37.016Z,83.00
2023-01-08T20:02:38.593Z,83.69
2023-01-08T20:04:45.987Z,83.90
2023-01-08T20:06:47.380Z,82.85
2023-01-08T20:08:50.864Z,83.13
2023-01-08T20:10:52.224Z,82.69
2023-01-08T20:12:53.599Z,83.12
2023-01-08T20:14:55.025Z,83.90
2023-01-08T20:16:56.723Z,83.74
2023-01-08T20:19:03.323Z,82.87
2023-01-08T20:21:10.139Z,83.73
2023-01-08T20:23:11.982Z,83.34
2023-01-08T20:25:13.401Z,83.14
2023-01-08T20:27:15.526Z,83.58
2023-01-08T20:29:17.535Z,82.62
2023-01-08T20:31:20.315Z,83.26
2023-01-08T20:33:21.722Z,82.89
2023-01-08T20:35:23.179Z,82.52
2023-01-08T20:37:24.567Z,83.14
2023-01-08T20:39:26.051Z,82.50
2023-01-08T20:41:28.433Z,83.09
2023-01-08T20:43:30.641Z,83.58
2023-01-08T20:45:32.131Z,82.52
2023-01-08T20:47:35.327Z,82.10
2023-01-08T20:49:36.823Z,82.89
2023-01-08T20:51:42.311Z,83.37
2023-01-08T20:53:45.503Z,82.85
2023-01-08T20:55:46.871Z,82.32
2023-01-08T20:57:48.278Z,82.91
2023-01-08T20:59:49.725Z,82.71
2023-01-08T21:01:51.333Z,83.08
2023-01-08T21:03:55.558Z,83.04
2023-01-08T21:05:56.924Z,83.25
2023-01-08T21:07:58.343Z,83.35
2023-01-08T21:09:59.777Z,83.20
2023-01-08T21:12:01.174Z,82.82
2023-01-08T21:14:03.489Z,82.51
2023-01-08T21:16:09.932Z,82.40
2023-01-08T21:18:11.322Z,83.05
2023-01-08T21:20:12.874Z,83.18
2023-01-08T21:22:14.253Z,83.35
2023-01-08T21:24:15.824Z,83.97
2023-01-08T21:26:18.415Z,83.37
2023-01-08T21:28:19.763Z,82.23
2023-01-08T21:30:21.236Z,82.57
2023-01-08T21:32:22.647Z,82.75
2023-01-08T21:34:24.006Z,82.52
2023-01-08T21:36:27.945Z,81.87
2023-01-08T21:38:33.296Z,82.11
2023-01-08T21:40:34.672Z,81.87
2023-01-08T21:42:57.218Z,82.05
2023-01-08T21:45:17.615Z,82.15
2023-01-08T21:47:19.056Z,82.80
2023-01-08T21:49:20.780Z,81.95
2023-01-08T21:51:40.829Z,81.99
2023-01-08T21:53:42.177Z,82.18
2023-01-08T21:55:43.921Z,81.65
2023-01-08T21:57:45.359Z,81.68
2023-01-08T21:59:50.120Z,81.73
2023-01-08T22:01:51.582Z,82.03
2023-01-08T22:03:53.048Z,81.45
2023-01-08T22:06:02.608Z,81.71
2023-01-08T22:08:05.217Z,81.25
2023-01-08T22:10:07.096Z,81.86
2023-01-08T22:12:08.683Z,81.73
2023-01-08T22:14:10.121Z,81.92
2023-01-08T22:16:12.847Z,81.70
2023-01-08T22:18:14.199Z,81.45
2023-01-08T22:20:15.856Z,81.68
2023-01-08T22:22:17.337Z,82.06
2023-01-08T22:24:18.763Z,81.29
2023-01-08T22:26:20.184Z,81.66
2023-01-08T22:28:21.700Z,82.00
2023-01-08T22:30:23.221Z,82.18
2023-01-08T22:32:24.729Z,82.15
2023-01-08T22:34:26.191Z,82.05
2023-01-08T22:36:27.909Z,81.52
2023-01-08T22:38:29.462Z,81.55
2023-01-08T22:40:30.902Z,81.61
2023-01-08T22:42:32.350Z,81.65
2023-01-08T22:44:33.832Z,81.98
2023-01-08T22:46:35.207Z,82.07
2023-01-08T22:48:37.332Z,82.80
2023-01-08T22:50:38.860Z,83.07
2023-01-08T22:52:40.310Z,83.07
2023-01-08T22:54:41.775Z,83.63
2023-01-08T22:56:43.820Z,83.28
2023-01-08T22:58:45.401Z,84.17
2023-01-08T23:00:46.812Z,83.89
2023-01-08T23:02:48.297Z,83.64
2023-01-08T23:04:52.060Z,83.88
2023-01-08T23:06:53.456Z,83.64
2023-01-08T23:08:55.819Z,83.69
2023-01-08T23:10:57.285Z,83.27
2023-01-08T23:12:58.831Z,83.67
2023-01-08T23:15:00.662Z,83.27
2023-01-08T23:17:02.035Z,83.84
2023-01-08T23:19:03.536Z,83.20
2023-01-08T23:21:10.463Z,83.90
2023-01-08T23:23:11.733Z,83.58
2023-01-08T23:25:13.278Z,83.53
2023-01-08T23:27:14.728Z,84.14
2023-01-08T23:29:16.114Z,83.71
2023-01-08T23:31:20.677Z,83.20
2023-01-08T23:33:22.095Z,83.09
2023-01-08T23:35:23.863Z,83.60
2023-01-08T23:37:25.290Z,83.61
2023-01-08T23:39:28.102Z,83.66
2023-01-08T23:41:35.048Z,83.85
2023-01-08T23:43:36.656Z,83.98
2023-01-08T23:45:39.203Z,84.05
2023-01-08T23:47:40.590Z,83.86
2023-01-08T23:49:41.983Z,84.49
2023-01-08T23:51:43.445Z,84.23
2023-01-08T23:53:44.971Z,84.75
2023-01-08T23:55:46.336Z,85.11
2023-01-08T23:57:47.814Z,85.20
2023-01-08T23:59:49.256Z,85.16
